sensor_id;sensor_type;location;lat;lon;timestamp;pressure;altitude;pressure_sealevel;temperature;humidity
22389;BME280;11362;48.102;11.620;2023-10-31T00:01:03;93787.78;;;24.44;49.08
22389;BME280;11362;48.102;11.620;2023-10-31T00:03:28;93800.75;;;24.47;48.88
22389;BME280;11362;48.102;11.620;2023-10-31T00:05:54;93798.44;;;24.46;48.80
22389;BME280;11362;48.102;11.620;2023-10-31T00:08:19;93803.22;;;24.45;48.93
22389;BME280;11362;48.102;11.620;2023-10-31T00:10:44;93801.38;;;24.42;48.94
22389;BME280;11362;48.102;11.620;2023-10-31T00:13:10;93804.13;;;24.42;49.03
22389;BME280;11362;48.102;11.620;2023-10-31T00:15:36;93806.13;;;24.42;48.80
22389;BME280;11362;48.102;11.620;2023-10-31T00:18:01;93814.00;;;24.43;48.80
22389;BME280;11362;48.102;11.620;2023-10-31T00:20:26;93801.81;;;24.41;48.73
22389;BME280;11362;48.102;11.620;2023-10-31T00:22:51;93796.13;;;24.44;48.66
22389;BME280;11362;48.102;11.620;2023-10-31T00:25:17;93801.38;;;24.42;48.87
22389;BME280;11362;48.102;11.620;2023-10-31T00:27:42;93803.34;;;24.42;48.96
22389;BME280;11362;48.102;11.620;2023-10-31T00:30:07;93808.47;;;24.43;48.77
22389;BME280;11362;48.102;11.620;2023-10-31T00:32:33;93808.13;;;24.41;48.68
22389;BME280;11362;48.102;11.620;2023-10-31T00:34:58;93804.13;;;24.42;48.82
22389;BME280;11362;48.102;11.620;2023-10-31T00:37:23;93807.22;;;24.44;48.77
22389;BME280;11362;48.102;11.620;2023-10-31T00:39:49;93807.22;;;24.44;48.55
22389;BME280;11362;48.102;11.620;2023-10-31T00:42:14;93791.81;;;24.43;48.60
22389;BME280;11362;48.102;11.620;2023-10-31T00:44:39;93804.44;;;24.44;48.63
22389;BME280;11362;48.102;11.620;2023-10-31T00:47:04;93800.88;;;24.44;48.54
22389;BME280;11362;48.102;11.620;2023-10-31T00:49:30;93796.88;;;24.45;48.34
22389;BME280;11362;48.102;11.620;2023-10-31T00:51:55;93787.50;;;24.42;48.62
22389;BME280;11362;48.102;11.620;2023-10-31T00:54:20;93791.31;;;24.45;48.42
22389;BME280;11362;48.102;11.620;2023-10-31T00:56:46;93807.22;;;24.44;48.40
22389;BME280;11362;48.102;11.620;2023-10-31T00:59:11;93808.75;;;24.45;48.51
22389;BME280;11362;48.102;11.620;2023-10-31T01:01:36;93801.66;;;24.44;48.41
22389;BME280;11362;48.102;11.620;2023-10-31T01:04:02;93795.81;;;24.42;48.64
22389;BME280;11362;48.102;11.620;2023-10-31T01:06:27;93794.25;;;24.41;48.23
22389;BME280;11362;48.102;11.620;2023-10-31T01:08:52;93797.34;;;24.43;48.29
22389;BME280;11362;48.102;11.620;2023-10-31T01:11:17;93793.34;;;24.44;48.21
22389;BME280;11362;48.102;11.620;2023-10-31T01:13:43;93795.81;;;24.42;48.28
22389;BME280;11362;48.102;11.620;2023-10-31T01:16:08;93798.59;;;24.42;48.17
22389;BME280;11362;48.102;11.620;2023-10-31T01:18:33;93795.81;;;24.42;48.25
22389;BME280;11362;48.102;11.620;2023-10-31T01:20:59;93817.53;;;24.44;48.40
22389;BME280;11362;48.102;11.620;2023-10-31T01:23:24;93811.97;;;24.44;48.28
22389;BME280;11362;48.102;11.620;2023-10-31T01:25:49;93807.66;;;24.43;48.31
22389;BME280;11362;48.102;11.620;2023-10-31T01:28:15;93804.13;;;24.42;48.11
22389;BME280;11362;48.102;11.620;2023-10-31T01:30:40;93806.91;;;24.42;48.02
22389;BME280;11362;48.102;11.620;2023-10-31T01:33:05;93810.44;;;24.43;47.99
22389;BME280;11362;48.102;11.620;2023-10-31T01:35:30;93812.78;;;24.44;48.12
22389;BME280;11362;48.102;11.620;2023-10-31T01:37:56;93809.69;;;24.42;48.13
22389;BME280;11362;48.102;11.620;2023-10-31T01:40:21;93818.00;;;24.42;48.00
22389;BME280;11362;48.102;11.620;2023-10-31T01:42:47;93823.56;;;24.42;48.13
22389;BME280;11362;48.102;11.620;2023-10-31T01:45:13;93820.78;;;24.42;48.06
22389;BME280;11362;48.102;11.620;2023-10-31T01:47:38;93823.56;;;24.42;48.11
22389;BME280;11362;48.102;11.620;2023-10-31T01:50:06;93821.25;;;24.41;48.02
22389;BME280;11362;48.102;11.620;2023-10-31T01:52:31;93822.47;;;24.40;47.91
22389;BME280;11362;48.102;11.620;2023-10-31T01:54:57;93826.00;;;24.40;48.03
22389;BME280;11362;48.102;11.620;2023-10-31T01:57:22;93823.72;;;24.39;47.91
22389;BME280;11362;48.102;11.620;2023-10-31T01:59:47;93821.38;;;24.37;48.03
22389;BME280;11362;48.102;11.620;2023-10-31T02:02:13;93826.63;;;24.35;47.87
22389;BME280;11362;48.102;11.620;2023-10-31T02:04:39;93822.63;;;24.36;47.94
22389;BME280;11362;48.102;11.620;2023-10-31T02:07:04;93823.84;;;24.35;48.24
22389;BME280;11362;48.102;11.620;2023-10-31T02:09:30;93820.94;;;24.39;48.14
22389;BME280;11362;48.102;11.620;2023-10-31T02:11:55;93830.94;;;24.36;48.02
22389;BME280;11362;48.102;11.620;2023-10-31T02:14:24;93841.25;;;24.36;48.10
22389;BME280;11362;48.102;11.620;2023-10-31T02:16:49;93840.50;;;24.35;47.96
22389;BME280;11362;48.102;11.620;2023-10-31T02:19:18;93848.16;;;24.31;48.00
22389;BME280;11362;48.102;11.620;2023-10-31T02:21:44;93849.09;;;24.28;47.98
22389;BME280;11362;48.102;11.620;2023-10-31T02:24:09;93858.97;;;24.29;48.06
22389;BME280;11362;48.102;11.620;2023-10-31T02:26:35;93856.81;;;24.33;47.94
22389;BME280;11362;48.102;11.620;2023-10-31T02:29:01;93867.91;;;24.33;47.93
22389;BME280;11362;48.102;11.620;2023-10-31T02:31:27;93865.91;;;24.34;47.83
22389;BME280;11362;48.102;11.620;2023-10-31T02:33:52;93865.47;;;24.35;47.73
22389;BME280;11362;48.102;11.620;2023-10-31T02:36:18;93864.97;;;24.28;47.71
22389;BME280;11362;48.102;11.620;2023-10-31T02:38:44;93852.75;;;24.25;47.92
22389;BME280;11362;48.102;11.620;2023-10-31T02:41:10;93857.09;;;24.26;48.07
22389;BME280;11362;48.102;11.620;2023-10-31T02:43:35;93856.31;;;24.26;48.31
22389;BME280;11362;48.102;11.620;2023-10-31T02:46:00;93869.72;;;24.27;47.90
22389;BME280;11362;48.102;11.620;2023-10-31T02:48:26;93871.75;;;24.27;47.83
22389;BME280;11362;48.102;11.620;2023-10-31T02:50:51;93857.09;;;24.26;47.94
22389;BME280;11362;48.102;11.620;2023-10-31T02:53:20;93859.53;;;24.24;47.88
22389;BME280;11362;48.102;11.620;2023-10-31T02:55:45;93872.63;;;24.24;47.76
22389;BME280;11362;48.102;11.620;2023-10-31T02:58:10;93871.56;;;24.21;47.85
22389;BME280;11362;48.102;11.620;2023-10-31T03:00:36;93873.88;;;24.23;47.93
22389;BME280;11362;48.102;11.620;2023-10-31T03:03:01;93883.41;;;24.22;47.78
22389;BME280;11362;48.102;11.620;2023-10-31T03:05:27;93881.44;;;24.22;47.91
22389;BME280;11362;48.102;11.620;2023-10-31T03:07:52;93889.75;;;24.22;47.82
22389;BME280;11362;48.102;11.620;2023-10-31T03:10:17;93898.53;;;24.21;47.75
22389;BME280;11362;48.102;11.620;2023-10-31T03:12:42;93911.94;;;24.22;47.50
22389;BME280;11362;48.102;11.620;2023-10-31T03:15:08;93907.94;;;24.23;47.76
22389;BME280;11362;48.102;11.620;2023-10-31T03:17:33;93911.94;;;24.22;47.65
22389;BME280;11362;48.102;11.620;2023-10-31T03:19:59;93909.19;;;24.22;47.59
22389;BME280;11362;48.102;11.620;2023-10-31T03:22:24;93909.19;;;24.22;47.63
22389;BME280;11362;48.102;11.620;2023-10-31T03:24:49;93899.31;;;24.21;47.66
22389;BME280;11362;48.102;11.620;2023-10-31T03:27:15;93890.50;;;24.23;47.71
22389;BME280;11362;48.102;11.620;2023-10-31T03:29:40;93881.44;;;24.22;47.33
22389;BME280;11362;48.102;11.620;2023-10-31T03:32:05;93879.88;;;24.21;47.45
22389;BME280;11362;48.102;11.620;2023-10-31T03:34:31;93884.22;;;24.22;47.63
22389;BME280;11362;48.102;11.620;2023-10-31T03:36:56;93888.97;;;24.22;47.31
22389;BME280;11362;48.102;11.620;2023-10-31T03:39:21;93880.06;;;24.27;47.35
22389;BME280;11362;48.102;11.620;2023-10-31T03:41:47;93885.16;;;24.28;47.21
22389;BME280;11362;48.102;11.620;2023-10-31T03:44:12;93882.41;;;24.28;47.25
22389;BME280;11362;48.102;11.620;2023-10-31T03:46:37;93885.63;;;24.27;47.23
22389;BME280;11362;48.102;11.620;2023-10-31T03:49:02;93895.94;;;24.26;47.15
22389;BME280;11362;48.102;11.620;2023-10-31T03:51:28;93903.94;;;24.24;47.28
22389;BME280;11362;48.102;11.620;2023-10-31T03:53:53;93902.09;;;24.21;47.19
22389;BME280;11362;48.102;11.620;2023-10-31T03:56:18;93908.88;;;24.20;47.33
22389;BME280;11362;48.102;11.620;2023-10-31T03:58:44;93912.09;;;24.19;47.38
22389;BME280;11362;48.102;11.620;2023-10-31T04:01:09;93910.84;;;24.20;47.24
22389;BME280;11362;48.102;11.620;2023-10-31T04:03:34;93912.84;;;24.19;47.29
22389;BME280;11362;48.102;11.620;2023-10-31T04:06:00;93908.72;;;24.24;47.02
22389;BME280;11362;48.102;11.620;2023-10-31T04:08:25;93914.41;;;24.20;47.34
22389;BME280;11362;48.102;11.620;2023-10-31T04:10:50;93919.50;;;24.22;47.14
22389;BME280;11362;48.102;11.620;2023-10-31T04:13:15;93919.19;;;24.20;47.15
22389;BME280;11362;48.102;11.620;2023-10-31T04:15:41;93929.84;;;24.21;47.17
22389;BME280;11362;48.102;11.620;2023-10-31T04:18:06;93939.81;;;24.19;47.03
22389;BME280;11362;48.102;11.620;2023-10-31T04:20:31;93937.81;;;24.19;47.09
22389;BME280;11362;48.102;11.620;2023-10-31T04:22:56;93944.03;;;24.23;47.09
22389;BME280;11362;48.102;11.620;2023-10-31T04:25:22;93945.25;;;24.22;47.08
22389;BME280;11362;48.102;11.620;2023-10-31T04:27:47;93938.16;;;24.21;47.03
22389;BME280;11362;48.102;11.620;2023-10-31T04:30:12;93947.72;;;24.20;47.02
22389;BME280;11362;48.102;11.620;2023-10-31T04:32:38;93937.19;;;24.15;47.08
22389;BME280;11362;48.102;11.620;2023-10-31T04:35:03;93935.97;;;24.16;46.96
22389;BME280;11362;48.102;11.620;2023-10-31T04:37:28;93941.50;;;24.16;47.14
22389;BME280;11362;48.102;11.620;2023-10-31T04:39:54;93937.19;;;24.15;46.89
22389;BME280;11362;48.102;11.620;2023-10-31T04:42:19;93933.97;;;24.17;47.02
22389;BME280;11362;48.102;11.620;2023-10-31T04:44:44;93938.84;;;24.13;47.14
22389;BME280;11362;48.102;11.620;2023-10-31T04:47:10;93934.84;;;24.14;47.13
22389;BME280;11362;48.102;11.620;2023-10-31T04:49:35;93938.53;;;24.11;47.11
22389;BME280;11362;48.102;11.620;2023-10-31T04:52:00;93938.84;;;24.13;46.99
22389;BME280;11362;48.102;11.620;2023-10-31T04:54:26;93934.53;;;24.12;46.99
22389;BME280;11362;48.102;11.620;2023-10-31T04:56:51;93923.44;;;24.12;47.00
22389;BME280;11362;48.102;11.620;2023-10-31T04:59:16;93920.97;;;24.14;46.98
22389;BME280;11362;48.102;11.620;2023-10-31T05:01:48;93923.31;;;24.15;46.86
22389;BME280;11362;48.102;11.620;2023-10-31T05:04:13;93931.94;;;24.17;46.86
22389;BME280;11362;48.102;11.620;2023-10-31T05:06:38;93939.03;;;24.18;46.75
22389;BME280;11362;48.102;11.620;2023-10-31T05:09:04;93943.03;;;24.17;46.79
22389;BME280;11362;48.102;11.620;2023-10-31T05:11:29;93947.06;;;24.16;46.57
22389;BME280;11362;48.102;11.620;2023-10-31T05:13:54;93958.16;;;24.16;46.71
22389;BME280;11362;48.102;11.620;2023-10-31T05:16:19;93958.16;;;24.16;46.72
22389;BME280;11362;48.102;11.620;2023-10-31T05:18:45;93965.69;;;24.16;46.69
22389;BME280;11362;48.102;11.620;2023-10-31T05:21:10;93970.03;;;24.17;46.67
22389;BME280;11362;48.102;11.620;2023-10-31T05:23:35;93972.03;;;24.16;46.68
22389;BME280;11362;48.102;11.620;2023-10-31T05:26:00;93975.59;;;24.17;46.60
22389;BME280;11362;48.102;11.620;2023-10-31T05:28:26;93990.53;;;24.19;46.51
22389;BME280;11362;48.102;11.620;2023-10-31T05:30:51;93985.88;;;24.16;46.63
22389;BME280;11362;48.102;11.620;2023-10-31T05:33:16;93982.69;;;24.18;46.53
22389;BME280;11362;48.102;11.620;2023-10-31T05:35:42;93987.44;;;24.17;46.57
22389;BME280;11362;48.102;11.620;2023-10-31T05:38:07;93988.66;;;24.16;46.58
22389;BME280;11362;48.102;11.620;2023-10-31T05:40:33;93988.34;;;24.14;46.83
22389;BME280;11362;48.102;11.620;2023-10-31T05:42:58;93994.66;;;24.15;46.53
22389;BME280;11362;48.102;11.620;2023-10-31T05:45:23;93998.22;;;24.15;46.53
22389;BME280;11362;48.102;11.620;2023-10-31T05:47:49;94001.00;;;24.15;46.53
22389;BME280;11362;48.102;11.620;2023-10-31T05:50:14;94005.31;;;24.16;46.53
22389;BME280;11362;48.102;11.620;2023-10-31T05:52:39;94011.31;;;24.15;46.42
22389;BME280;11362;48.102;11.620;2023-10-31T05:55:05;94009.00;;;24.13;46.41
22389;BME280;11362;48.102;11.620;2023-10-31T05:57:30;94005.00;;;24.14;46.47
22389;BME280;11362;48.102;11.620;2023-10-31T05:59:56;94015.63;;;24.16;46.49
22389;BME280;11362;48.102;11.620;2023-10-31T06:02:21;94010.72;;;24.20;46.57
22389;BME280;11362;48.102;11.620;2023-10-31T06:04:46;94010.28;;;24.21;46.33
22389;BME280;11362;48.102;11.620;2023-10-31T06:07:11;94017.38;;;24.22;46.50
22389;BME280;11362;48.102;11.620;2023-10-31T06:09:37;94018.94;;;24.23;46.62
22389;BME280;11362;48.102;11.620;2023-10-31T06:12:02;94022.69;;;24.29;46.72
22389;BME280;11362;48.102;11.620;2023-10-31T06:14:28;94016.47;;;24.25;47.17
22389;BME280;11362;48.102;11.620;2023-10-31T06:16:53;94022.03;;;24.25;47.14
22389;BME280;11362;48.102;11.620;2023-10-31T06:19:18;94033.44;;;24.27;47.55
22389;BME280;11362;48.102;11.620;2023-10-31T06:21:43;94030.66;;;24.27;47.76
22389;BME280;11362;48.102;11.620;2023-10-31T06:24:09;94036.22;;;24.27;48.00
22389;BME280;11362;48.102;11.620;2023-10-31T06:26:34;94043.22;;;24.32;47.96
22389;BME280;11362;48.102;11.620;2023-10-31T06:29:00;94043.97;;;24.32;47.78
22389;BME280;11362;48.102;11.620;2023-10-31T06:31:25;94039.53;;;24.35;47.84
22389;BME280;11362;48.102;11.620;2023-10-31T06:33:50;94042.47;;;24.40;48.42
22389;BME280;11362;48.102;11.620;2023-10-31T06:36:16;94042.47;;;24.40;48.33
22389;BME280;11362;48.102;11.620;2023-10-31T06:38:41;94042.16;;;24.38;48.53
22389;BME280;11362;48.102;11.620;2023-10-31T06:41:06;94046.03;;;24.41;48.23
22389;BME280;11362;48.102;11.620;2023-10-31T06:43:32;94046.03;;;24.41;48.30
22389;BME280;11362;48.102;11.620;2023-10-31T06:45:57;94057.91;;;24.41;48.00
22389;BME280;11362;48.102;11.620;2023-10-31T06:48:22;94054.38;;;24.41;47.90
22389;BME280;11362;48.102;11.620;2023-10-31T06:50:48;94076.13;;;24.42;47.87
22389;BME280;11362;48.102;11.620;2023-10-31T06:53:13;94083.22;;;24.43;47.60
22389;BME280;11362;48.102;11.620;2023-10-31T06:55:38;94079.66;;;24.43;47.79
22389;BME280;11362;48.102;11.620;2023-10-31T06:58:04;94051.91;;;24.43;47.49
22389;BME280;11362;48.102;11.620;2023-10-31T07:00:29;94055.59;;;24.40;47.85
22389;BME280;11362;48.102;11.620;2023-10-31T07:02:54;94057.91;;;24.41;47.60
22389;BME280;11362;48.102;11.620;2023-10-31T07:05:19;94058.25;;;24.43;47.37
22389;BME280;11362;48.102;11.620;2023-10-31T07:07:45;94076.91;;;24.43;47.51
22389;BME280;11362;48.102;11.620;2023-10-31T07:10:10;94117.31;;;24.44;47.25
22389;BME280;11362;48.102;11.620;2023-10-31T07:12:35;94110.66;;;24.07;41.57
22389;BME280;11362;48.102;11.620;2023-10-31T07:15:00;94108.81;;;23.54;39.41
22389;BME280;11362;48.102;11.620;2023-10-31T07:17:26;94102.16;;;23.64;40.37
22389;BME280;11362;48.102;11.620;2023-10-31T07:19:51;94095.19;;;23.60;39.76
22389;BME280;11362;48.102;11.620;2023-10-31T07:22:17;94097.28;;;23.68;40.04
22389;BME280;11362;48.102;11.620;2023-10-31T07:24:43;94099.06;;;23.75;40.17
22389;BME280;11362;48.102;11.620;2023-10-31T07:27:09;94095.50;;;23.87;40.62
22389;BME280;11362;48.102;11.620;2023-10-31T07:29:34;94074.72;;;23.91;40.48
22389;BME280;11362;48.102;11.620;2023-10-31T07:32:00;94073.84;;;23.94;40.84
22389;BME280;11362;48.102;11.620;2023-10-31T07:34:25;94073.41;;;23.96;40.86
22389;BME280;11362;48.102;11.620;2023-10-31T07:36:50;94083.16;;;24.00;41.34
22389;BME280;11362;48.102;11.620;2023-10-31T07:39:16;94077.16;;;24.02;41.94
22389;BME280;11362;48.102;11.620;2023-10-31T07:41:41;94110.19;;;24.09;42.04
22389;BME280;11362;48.102;11.620;2023-10-31T07:44:06;94101.44;;;24.10;42.33
22389;BME280;11362;48.102;11.620;2023-10-31T07:46:32;94101.31;;;24.14;42.48
22389;BME280;11362;48.102;11.620;2023-10-31T07:48:57;94084.22;;;24.15;42.82
22389;BME280;11362;48.102;11.620;2023-10-31T07:51:22;94081.13;;;24.13;43.00
22389;BME280;11362;48.102;11.620;2023-10-31T07:53:47;94080.22;;;24.16;43.15
22389;BME280;11362;48.102;11.620;2023-10-31T07:56:17;94081.31;;;24.19;43.55
22389;BME280;11362;48.102;11.620;2023-10-31T07:58:42;94103.09;;;24.20;43.58
22389;BME280;11362;48.102;11.620;2023-10-31T08:01:08;94095.06;;;24.22;43.91
22389;BME280;11362;48.102;11.620;2023-10-31T08:03:33;94099.41;;;24.23;44.25
22389;BME280;11362;48.102;11.620;2023-10-31T08:05:58;94092.94;;;24.26;44.04
22389;BME280;11362;48.102;11.620;2023-10-31T08:08:23;94101.25;;;24.26;44.31
22389;BME280;11362;48.102;11.620;2023-10-31T08:10:49;94112.84;;;24.25;44.14
22389;BME280;11362;48.102;11.620;2023-10-31T08:13:14;94125.00;;;24.27;44.63
22389;BME280;11362;48.102;11.620;2023-10-31T08:15:39;94125.78;;;24.28;44.37
22389;BME280;11362;48.102;11.620;2023-10-31T08:18:05;94137.22;;;24.30;44.54
22389;BME280;11362;48.102;11.620;2023-10-31T08:20:30;94144.78;;;24.29;44.65
22389;BME280;11362;48.102;11.620;2023-10-31T08:22:55;94165.75;;;24.30;44.84
22389;BME280;11362;48.102;11.620;2023-10-31T08:25:20;94161.44;;;24.29;44.84
22389;BME280;11362;48.102;11.620;2023-10-31T08:27:46;94150.34;;;24.29;44.82
22389;BME280;11362;48.102;11.620;2023-10-31T08:30:11;94166.06;;;24.32;44.82
22389;BME280;11362;48.102;11.620;2023-10-31T08:32:36;94177.97;;;24.33;44.83
22389;BME280;11362;48.102;11.620;2023-10-31T08:35:02;94192.94;;;24.35;44.81
22389;BME280;11362;48.102;11.620;2023-10-31T08:37:27;94193.72;;;24.36;44.84
22389;BME280;11362;48.102;11.620;2023-10-31T08:39:52;94206.34;;;24.37;44.70
22389;BME280;11362;48.102;11.620;2023-10-31T08:42:18;94174.28;;;24.36;44.82
22389;BME280;11362;48.102;11.620;2023-10-31T08:44:43;94188.94;;;24.36;44.78
22389;BME280;11362;48.102;11.620;2023-10-31T08:47:08;94187.72;;;24.37;44.75
22389;BME280;11362;48.102;11.620;2023-10-31T08:49:33;94213.81;;;24.40;44.94
22389;BME280;11362;48.102;11.620;2023-10-31T08:51:59;94214.25;;;24.38;44.88
22389;BME280;11362;48.102;11.620;2023-10-31T08:54:24;94204.69;;;24.39;44.79
22389;BME280;11362;48.102;11.620;2023-10-31T08:56:49;94205.91;;;24.38;44.87
22389;BME280;11362;48.102;11.620;2023-10-31T08:59:15;94199.56;;;24.38;44.87
22389;BME280;11362;48.102;11.620;2023-10-31T09:01:40;94208.25;;;24.40;44.88
22389;BME280;11362;48.102;11.620;2023-10-31T09:04:05;94214.25;;;24.38;44.91
22389;BME280;11362;48.102;11.620;2023-10-31T09:06:30;94208.69;;;24.38;45.05
22389;BME280;11362;48.102;11.620;2023-10-31T09:08:56;94216.13;;;24.41;45.09
22389;BME280;11362;48.102;11.620;2023-10-31T09:11:21;94226.03;;;24.42;44.95
22389;BME280;11362;48.102;11.620;2023-10-31T09:13:46;94220.78;;;24.44;44.95
22389;BME280;11362;48.102;11.620;2023-10-31T09:16:11;94208.13;;;24.43;44.81
22389;BME280;11362;48.102;11.620;2023-10-31T09:18:37;94220.00;;;24.44;44.82
22389;BME280;11362;48.102;11.620;2023-10-31T09:21:02;94222.03;;;24.43;44.87
22389;BME280;11362;48.102;11.620;2023-10-31T09:23:28;94225.22;;;24.42;44.85
22389;BME280;11362;48.102;11.620;2023-10-31T09:25:53;94201.03;;;24.42;44.41
22389;BME280;11362;48.102;11.620;2023-10-31T09:28:18;94201.78;;;24.43;44.84
22389;BME280;11362;48.102;11.620;2023-10-31T09:30:43;94200.56;;;24.44;44.86
22389;BME280;11362;48.102;11.620;2023-10-31T09:33:09;94207.78;;;24.41;44.86
22389;BME280;11362;48.102;11.620;2023-10-31T09:35:34;94215.34;;;24.41;45.09
22389;BME280;11362;48.102;11.620;2023-10-31T09:37:59;94245.09;;;24.40;44.79
22389;BME280;11362;48.102;11.620;2023-10-31T09:40:25;94260.19;;;24.39;44.90
22389;BME280;11362;48.102;11.620;2023-10-31T09:42:51;94257.09;;;24.37;45.01
22389;BME280;11362;48.102;11.620;2023-10-31T09:45:17;94258.66;;;24.38;45.00
22389;BME280;11362;48.102;11.620;2023-10-31T09:47:42;94251.56;;;24.37;44.89
22389;BME280;11362;48.102;11.620;2023-10-31T09:50:08;94244.78;;;24.38;45.01
22389;BME280;11362;48.102;11.620;2023-10-31T09:52:35;94238.00;;;24.39;45.02
22389;BME280;11362;48.102;11.620;2023-10-31T09:55:01;94236.13;;;24.36;45.00
22389;BME280;11362;48.102;11.620;2023-10-31T09:57:27;94234.91;;;24.37;44.94
22389;BME280;11362;48.102;11.620;2023-10-31T09:59:53;94249.22;;;24.36;45.01
22389;BME280;11362;48.102;11.620;2023-10-31T10:02:18;94257.97;;;24.34;45.21
22389;BME280;11362;48.102;11.620;2023-10-31T10:04:43;94265.88;;;24.36;45.04
22389;BME280;11362;48.102;11.620;2023-10-31T10:07:13;94279.00;;;24.35;45.09
22389;BME280;11362;48.102;11.620;2023-10-31T10:09:40;94284.44;;;24.39;44.89
22389;BME280;11362;48.102;11.620;2023-10-31T10:12:06;94290.41;;;24.37;45.03
22389;BME280;11362;48.102;11.620;2023-10-31T10:14:32;94266.31;;;24.34;45.08
22389;BME280;11362;48.102;11.620;2023-10-31T10:16:57;94268.75;;;24.32;44.95
22389;BME280;11362;48.102;11.620;2023-10-31T10:19:23;94273.56;;;24.32;45.11
22389;BME280;11362;48.102;11.620;2023-10-31T10:21:50;94305.97;;;24.22;42.75
22389;BME280;11362;48.102;11.620;2023-10-31T10:24:17;94301.97;;;24.23;42.65
22389;BME280;11362;48.102;11.620;2023-10-31T10:26:42;94304.31;;;24.25;42.98
22389;BME280;11362;48.102;11.620;2023-10-31T10:29:07;94292.31;;;24.28;43.41
22389;BME280;11362;48.102;11.620;2023-10-31T10:31:33;94302.19;;;24.29;43.93
22389;BME280;11362;48.102;11.620;2023-10-31T10:33:58;94303.28;;;24.31;43.99
22389;BME280;11362;48.102;11.620;2023-10-31T10:36:25;94299.06;;;24.27;44.11
22389;BME280;11362;48.102;11.620;2023-10-31T10:38:56;94302.97;;;24.29;44.29
22389;BME280;11362;48.102;11.620;2023-10-31T10:41:24;94298.97;;;24.30;44.41
22389;BME280;11362;48.102;11.620;2023-10-31T10:43:57;94304.50;;;24.30;44.33
22389;BME280;11362;48.102;11.620;2023-10-31T10:46:33;94292.50;;;24.33;44.22
22389;BME280;11362;48.102;11.620;2023-10-31T10:48:59;94292.50;;;24.33;44.22
22389;BME280;11362;48.102;11.620;2023-10-31T10:51:48;94288.50;;;24.34;44.18
22389;BME280;11362;48.102;11.620;2023-10-31T10:54:35;94293.63;;;24.36;44.36
22389;BME280;11362;48.102;11.620;2023-10-31T10:57:14;94287.31;;;24.35;44.41
22389;BME280;11362;48.102;11.620;2023-10-31T10:59:44;94286.09;;;24.36;44.23
22389;BME280;11362;48.102;11.620;2023-10-31T11:02:12;94293.19;;;24.37;44.39
22389;BME280;11362;48.102;11.620;2023-10-31T11:04:38;94290.41;;;24.37;44.36
22389;BME280;11362;48.102;11.620;2023-10-31T11:07:05;94291.16;;;24.38;44.24
22389;BME280;11362;48.102;11.620;2023-10-31T11:09:31;94295.97;;;24.37;44.32
22389;BME280;11362;48.102;11.620;2023-10-31T11:11:56;94294.41;;;24.36;44.27
22389;BME280;11362;48.102;11.620;2023-10-31T11:14:23;94290.09;;;24.35;44.17
22389;BME280;11362;48.102;11.620;2023-10-31T11:16:53;94290.09;;;24.35;44.39
22389;BME280;11362;48.102;11.620;2023-10-31T11:19:19;94282.53;;;24.36;44.14
22389;BME280;11362;48.102;11.620;2023-10-31T11:21:54;94286.09;;;24.36;44.40
22389;BME280;11362;48.102;11.620;2023-10-31T11:24:23;94283.31;;;24.36;44.15
22389;BME280;11362;48.102;11.620;2023-10-31T11:26:52;94287.31;;;24.35;44.48
22389;BME280;11362;48.102;11.620;2023-10-31T11:29:18;94285.63;;;24.38;44.70
22389;BME280;11362;48.102;11.620;2023-10-31T11:31:43;94304.63;;;24.39;44.57
22389;BME280;11362;48.102;11.620;2023-10-31T11:34:09;94289.09;;;24.29;43.21
22389;BME280;11362;48.102;11.620;2023-10-31T11:36:35;94280.28;;;24.31;43.47
22389;BME280;11362;48.102;11.620;2023-10-31T11:39:20;94245.44;;;24.30;42.76
22389;BME280;11362;48.102;11.620;2023-10-31T11:41:50;94249.88;;;24.27;43.15
22389;BME280;11362;48.102;11.620;2023-10-31T11:44:16;94248.56;;;24.32;43.16
22389;BME280;11362;48.102;11.620;2023-10-31T11:46:42;94277.41;;;24.34;43.18
22389;BME280;11362;48.102;11.620;2023-10-31T11:49:08;94271.84;;;24.34;43.63
22389;BME280;11362;48.102;11.620;2023-10-31T11:51:33;94245.56;;;24.39;43.67
22389;BME280;11362;48.102;11.620;2023-10-31T11:54:02;94253.78;;;24.42;43.81
22389;BME280;11362;48.102;11.620;2023-10-31T11:56:28;94241.88;;;24.42;44.01
22389;BME280;11362;48.102;11.620;2023-10-31T11:59:02;94272.75;;;24.44;44.21
22389;BME280;11362;48.102;11.620;2023-10-31T12:01:28;94259.66;;;24.44;44.10
22389;BME280;11362;48.102;11.620;2023-10-31T12:03:53;94270.44;;;24.42;44.35
22389;BME280;11362;48.102;11.620;2023-10-31T12:06:18;94281.53;;;24.42;44.50
22389;BME280;11362;48.102;11.620;2023-10-31T12:08:44;94284.75;;;24.41;44.46
22389;BME280;11362;48.102;11.620;2023-10-31T12:11:11;94260.19;;;24.39;44.02
22389;BME280;11362;48.102;11.620;2023-10-31T12:13:39;94262.66;;;24.37;43.72
22389;BME280;11362;48.102;11.620;2023-10-31T12:16:06;94257.09;;;24.37;43.97
22389;BME280;11362;48.102;11.620;2023-10-31T12:18:31;94255.09;;;24.38;43.58
22389;BME280;11362;48.102;11.620;2023-10-31T12:20:57;94262.66;;;24.37;43.80
22389;BME280;11362;48.102;11.620;2023-10-31T12:23:22;94249.53;;;24.38;43.71
22389;BME280;11362;48.102;11.620;2023-10-31T12:25:51;94255.56;;;24.36;43.68
22389;BME280;11362;48.102;11.620;2023-10-31T12:28:18;94259.88;;;24.37;43.53
22389;BME280;11362;48.102;11.620;2023-10-31T12:30:48;94257.09;;;24.37;43.31
22389;BME280;11362;48.102;11.620;2023-10-31T12:33:13;94257.09;;;24.37;43.56
22389;BME280;11362;48.102;11.620;2023-10-31T12:35:39;94257.53;;;24.36;43.40
22389;BME280;11362;48.102;11.620;2023-10-31T12:38:05;94257.22;;;24.34;43.51
22389;BME280;11362;48.102;11.620;2023-10-31T12:40:31;94261.22;;;24.33;43.38
22389;BME280;11362;48.102;11.620;2023-10-31T12:42:57;94260.13;;;24.30;43.52